Time,TemperatureF,DewpointF,PressureIn,WindDirection,WindDirectionDegrees,WindSpeedMPH,WindSpeedGustMPH,Humidity,HourlyPrecipIn,Conditions,Clouds,dailyrainin,SoftwareType,DateUTC
2013-10-12 00:14:00,65.0,52.0,-100.00,NNW,343,0.0,2.0,63,0.00,,,0.00,,2013-10-12 04:14:00,
2013-10-12 00:24:00,65.0,52.0,-100.00,NNW,343,0.0,2.0,63,0.00,,,0.00,,2013-10-12 04:24:00,
2013-10-12 00:44:00,64.0,52.0,-100.00,North,352,1.0,2.0,64,0.00,,,0.00,,2013-10-12 04:44:00,
2013-10-12 00:54:00,64.0,53.0,-100.00,NNE,23,2.0,3.0,68,0.00,,,0.00,,2013-10-12 04:54:00,
2013-10-12 01:03:00,64.0,53.0,-100.00,NNE,23,2.0,3.0,68,0.00,,,0.00,,2013-10-12 05:03:00,
2013-10-12 01:13:00,64.0,53.0,-100.00,NNE,23,2.0,3.0,68,0.00,,,0.00,,2013-10-12 05:13:00,
2013-10-12 01:23:00,63.0,53.0,-100.00,WNW,287,0.0,0.0,69,0.00,,,0.00,,2013-10-12 05:23:00,
2013-10-12 01:30:00,63.0,54.0,-100.00,North,11,0.0,2.0,73,0.00,,,0.00,,2013-10-12 05:30:00,
2013-10-12 01:43:00,62.0,53.0,-100.00,SSW,213,0.0,0.0,71,0.00,,,0.00,,2013-10-12 05:43:00,
2013-10-12 01:52:00,63.0,54.0,-100.00,North,11,0.0,2.0,73,0.00,,,0.00,,2013-10-12 05:52:00,
2013-10-12 02:02:00,63.0,54.0,-100.00,North,11,0.0,2.0,73,0.00,,,0.00,,2013-10-12 06:02:00,
2013-10-12 02:12:00,63.0,54.0,-100.00,North,11,0.0,2.0,73,0.00,,,0.00,,2013-10-12 06:12:00,
2013-10-12 02:22:00,63.0,54.0,-100.00,North,11,0.0,2.0,73,0.00,,,0.00,,2013-10-12 06:22:00,
2013-10-12 02:52:00,64.0,54.0,-100.00,East,92,2.0,3.0,71,0.00,,,0.00,,2013-10-12 06:52:00,
2013-10-12 03:12:00,63.0,55.0,-100.00,WNW,295,0.0,1.0,75,0.00,,,0.00,,2013-10-12 07:12:00,
2013-10-12 03:22:00,62.0,54.0,-100.00,SSW,213,0.0,0.0,76,0.00,,,0.00,,2013-10-12 07:22:00,
2013-10-12 03:42:00,61.0,54.0,-100.00,ESE,104,0.0,2.0,77,0.00,,,0.00,,2013-10-12 07:42:00,
2013-10-12 03:52:00,61.0,54.0,-100.00,ESE,104,0.0,2.0,77,0.00,,,0.00,,2013-10-12 07:52:00,
2013-10-12 04:12:00,62.0,56.0,-100.00,NNW,340,1.0,2.0,79,0.00,,,0.00,,2013-10-12 08:12:00,
2013-10-12 04:23:00,60.0,54.0,-100.00,SW,223,0.0,0.0,82,0.00,,,0.00,,2013-10-12 08:23:00,
2013-10-12 04:42:00,60.0,54.0,-100.00,NW,305,0.0,0.0,83,0.00,,,0.00,,2013-10-12 08:42:00,
2013-10-12 04:52:00,60.0,54.0,-100.00,NNW,346,1.0,2.0,83,0.00,,,0.00,,2013-10-12 08:52:00,
2013-10-12 05:02:00,60.0,54.0,-100.00,NNW,346,1.0,2.0,83,0.00,,,0.00,,2013-10-12 09:02:00,
2013-10-12 05:11:00,60.0,54.0,-100.00,NNW,346,1.0,2.0,83,0.00,,,0.00,,2013-10-12 09:11:00,
2013-10-12 05:22:00,60.0,54.0,-100.00,NNW,346,1.0,2.0,83,0.00,,,0.00,,2013-10-12 09:22:00,
2013-10-12 05:43:00,59.0,55.0,-100.00,NNW,336,1.0,2.0,85,0.00,,,0.00,,2013-10-12 09:43:00,
2013-10-12 05:54:00,59.0,55.0,-100.00,NNW,336,1.0,2.0,85,0.00,,,0.00,,2013-10-12 09:54:00,
2013-10-12 06:12:00,59.0,54.0,-100.00,NNE,27,1.0,2.0,84,0.00,,,0.00,,2013-10-12 10:12:00,
2013-10-12 06:23:00,59.0,55.0,-100.00,North,360,1.0,2.0,85,0.00,,,0.00,,2013-10-12 10:23:00,
2013-10-12 06:42:00,59.0,55.0,-100.00,North,350,1.0,2.0,87,0.00,,,0.00,,2013-10-12 10:42:00,
2013-10-12 06:53:00,57.0,54.0,-100.00,South,172,0.0,0.0,91,0.00,,,0.00,,2013-10-12 10:53:00,
2013-10-12 07:12:00,57.0,55.0,-100.00,North,7,1.0,2.0,91,0.00,,,0.00,,2013-10-12 11:12:00,
2013-10-12 07:22:00,57.0,55.0,-100.00,NW,325,0.0,2.0,94,0.00,,,0.00,,2013-10-12 11:22:00,
2013-10-12 07:33:00,57.0,55.0,-100.00,NW,325,0.0,2.0,94,0.00,,,0.00,,2013-10-12 11:33:00,
2013-10-12 07:42:00,57.0,55.0,-100.00,NW,325,0.0,2.0,94,0.00,,,0.00,,2013-10-12 11:42:00,
2013-10-12 07:52:00,57.0,55.0,-100.00,NNW,330,0.0,1.0,93,0.00,,,0.00,,2013-10-12 11:52:00,
2013-10-12 08:01:00,57.0,55.0,-100.00,NNW,330,0.0,1.0,93,0.00,,,0.00,,2013-10-12 12:01:00,
2013-10-12 08:12:00,57.0,55.0,-100.00,NNW,330,0.0,1.0,93,0.00,,,0.00,,2013-10-12 12:12:00,
2013-10-12 08:22:00,57.0,56.0,-100.00,WSW,256,2.0,3.0,94,0.00,,,0.00,,2013-10-12 12:22:00,
2013-10-12 08:42:00,57.0,55.0,-100.00,West,264,0.0,1.0,93,0.00,,,0.00,,2013-10-12 12:42:00,
2013-10-12 08:52:00,58.0,56.0,-100.00,WSW,240,2.0,3.0,92,0.00,,,0.00,,2013-10-12 12:52:00,
2013-10-12 09:22:00,58.0,56.0,-100.00,WSW,240,2.0,3.0,92,0.00,,,0.00,,2013-10-12 13:22:00,
2013-10-12 09:52:00,60.0,57.0,-100.00,ENE,75,2.0,4.0,88,0.00,,,0.00,,2013-10-12 13:52:00,
2013-10-12 10:02:00,60.0,57.0,-100.00,ENE,75,2.0,4.0,88,0.00,,,0.00,,2013-10-12 14:02:00,
2013-10-12 10:12:00,60.0,57.0,-100.00,ENE,75,2.0,4.0,88,0.00,,,0.00,,2013-10-12 14:12:00,
2013-10-12 10:21:00,60.0,57.0,-100.00,ENE,75,2.0,4.0,88,0.00,,,0.00,,2013-10-12 14:21:00,
2013-10-12 10:42:00,61.0,56.0,-100.00,WSW,240,1.0,3.0,84,0.00,,,0.00,,2013-10-12 14:42:00,
2013-10-12 10:52:00,60.0,57.0,-100.00,SE,144,0.0,1.0,88,0.00,,,0.00,,2013-10-12 14:52:00,
2013-10-12 11:11:00,62.0,57.0,-100.00,West,275,0.0,0.0,83,0.00,,,0.00,,2013-10-12 15:11:00,
2013-10-12 11:22:00,62.0,57.0,-100.00,West,275,0.0,0.0,83,0.00,,,0.00,,2013-10-12 15:22:00,
2013-10-12 11:44:00,66.0,58.0,-100.00,SE,133,1.0,2.0,76,0.00,,,0.00,,2013-10-12 15:44:00,
2013-10-12 11:54:00,66.0,58.0,-100.00,SE,133,1.0,2.0,76,0.00,,,0.00,,2013-10-12 15:54:00,
2013-10-12 12:13:00,67.0,58.0,-100.00,SW,229,1.0,2.0,74,0.00,,,0.00,,2013-10-12 16:13:00,
2013-10-12 12:23:00,66.0,58.0,-100.00,SE,127,1.0,3.0,76,0.00,,,0.00,,2013-10-12 16:23:00,
2013-10-12 12:33:00,66.0,58.0,-100.00,SE,127,1.0,3.0,76,0.00,,,0.00,,2013-10-12 16:33:00,
2013-10-12 12:53:00,68.0,59.0,-100.00,SW,222,1.0,2.0,72,0.00,,,0.00,,2013-10-12 16:53:00,
2013-10-12 13:13:00,67.0,58.0,-100.00,East,85,0.0,1.0,73,0.00,,,0.00,,2013-10-12 17:13:00,
2013-10-12 13:23:00,68.0,60.0,-100.00,ESE,120,0.0,1.0,74,0.00,,,0.00,,2013-10-12 17:23:00,
2013-10-12 13:42:00,67.0,60.0,-100.00,ESE,116,1.0,2.0,76,0.00,,,0.00,,2013-10-12 17:42:00,
2013-10-12 13:53:00,68.0,60.0,-100.00,ESE,117,2.0,3.0,76,0.00,,,0.00,,2013-10-12 17:53:00,
2013-10-12 14:12:00,69.0,61.0,-100.00,SSE,165,1.0,3.0,76,0.00,,,0.00,,2013-10-12 18:12:00,
2013-10-12 14:22:00,71.0,60.0,-100.00,WNW,282,2.0,6.0,69,0.00,,,0.00,,2013-10-12 18:22:00,
2013-10-12 14:42:00,69.0,60.0,-100.00,SE,136,2.0,5.0,75,0.00,,,0.00,,2013-10-12 18:42:00,
2013-10-12 14:52:00,69.0,60.0,-100.00,SE,136,2.0,5.0,75,0.00,,,0.00,,2013-10-12 18:52:00,
2013-10-12 15:11:00,70.0,60.0,-100.00,SE,134,1.0,4.0,71,0.00,,,0.00,,2013-10-12 19:11:00,
2013-10-12 15:22:00,70.0,60.0,-100.00,NE,38,2.0,4.0,70,0.00,,,0.00,,2013-10-12 19:22:00,
2013-10-12 15:42:00,70.0,60.0,-100.00,South,185,0.0,2.0,70,0.00,,,0.00,,2013-10-12 19:42:00,
2013-10-12 15:52:00,69.0,60.0,-100.00,NNE,24,2.0,4.0,74,0.00,,,0.00,,2013-10-12 19:52:00,
2013-10-12 16:12:00,69.0,60.0,-100.00,ESE,106,3.0,4.0,74,0.00,,,0.00,,2013-10-12 20:12:00,
2013-10-12 16:22:00,68.0,60.0,-100.00,ENE,66,1.0,2.0,76,0.00,,,0.00,,2013-10-12 20:22:00,
2013-10-12 16:42:00,68.0,60.0,-100.00,ENE,71,1.0,3.0,76,0.00,,,0.00,,2013-10-12 20:42:00,
2013-10-12 16:52:00,68.0,60.0,-100.00,ENE,71,1.0,3.0,76,0.00,,,0.00,,2013-10-12 20:52:00,
2013-10-12 17:11:00,67.0,61.0,-100.00,ESE,106,3.0,7.0,81,0.00,,,0.00,,2013-10-12 21:11:00,
2013-10-12 17:22:00,65.0,61.0,-100.00,East,93,4.0,7.0,87,0.00,,,0.00,,2013-10-12 21:22:00,
2013-10-12 17:43:00,65.0,62.0,-100.00,East,82,5.0,7.0,89,0.00,,,0.00,,2013-10-12 21:43:00,
2013-10-12 17:54:00,65.0,62.0,-100.00,ESE,107,3.0,5.0,87,0.00,,,0.00,,2013-10-12 21:54:00,
2013-10-12 18:13:00,65.0,62.0,-100.00,East,99,3.0,6.0,88,0.00,,,0.00,,2013-10-12 22:13:00,
2013-10-12 18:25:00,65.0,61.0,-100.00,East,88,3.0,5.0,87,0.00,,,0.00,,2013-10-12 22:25:00,
2013-10-12 18:43:00,66.0,62.0,-100.00,ESE,112,2.0,4.0,86,0.00,,,0.00,,2013-10-12 22:43:00,
2013-10-12 18:54:00,65.0,62.0,-100.00,SE,133,1.0,2.0,87,0.00,,,0.00,,2013-10-12 22:54:00,
2013-10-12 19:12:00,66.0,62.0,-100.00,ENE,69,3.0,4.0,86,0.00,,,0.00,,2013-10-12 23:12:00,
2013-10-12 19:22:00,65.0,61.0,-100.00,ENE,69,5.0,6.0,87,0.00,,,0.00,,2013-10-12 23:22:00,
2013-10-12 19:33:00,65.0,61.0,-100.00,ENE,69,5.0,6.0,87,0.00,,,0.00,,2013-10-12 23:33:00,
2013-10-12 19:52:00,65.0,61.0,-100.00,NE,55,4.0,5.0,89,0.00,,,0.00,,2013-10-12 23:52:00,
2013-10-12 20:12:00,65.0,61.0,-100.00,NE,37,3.0,4.0,87,0.00,,,0.00,,2013-10-13 00:12:00,
2013-10-12 20:22:00,65.0,61.0,-100.00,NE,37,3.0,4.0,87,0.00,,,0.00,,2013-10-13 00:22:00,
2013-10-12 20:42:00,64.0,60.0,-100.00,NNE,30,2.0,4.0,88,0.00,,,0.00,,2013-10-13 00:42:00,
2013-10-12 20:52:00,64.0,60.0,-100.00,NNE,25,4.0,5.0,88,0.00,,,0.00,,2013-10-13 00:52:00,
2013-10-12 21:12:00,64.0,60.0,-100.00,NNE,27,4.0,6.0,87,0.00,,,0.00,,2013-10-13 01:12:00,
2013-10-12 21:22:00,64.0,60.0,-100.00,NE,41,4.0,6.0,86,0.00,,,0.00,,2013-10-13 01:22:00,
2013-10-12 21:32:00,64.0,60.0,-100.00,NE,41,4.0,6.0,86,0.00,,,0.00,,2013-10-13 01:32:00,
2013-10-12 21:42:00,64.0,60.0,-100.00,NE,41,4.0,6.0,86,0.00,,,0.00,,2013-10-13 01:42:00,
2013-10-12 21:52:00,64.0,60.0,-100.00,NE,40,3.0,5.0,86,0.00,,,0.00,,2013-10-13 01:52:00,
2013-10-12 22:12:00,63.0,60.0,-100.00,NNE,30,4.0,6.0,87,0.00,,,0.00,,2013-10-13 02:12:00,
2013-10-12 22:22:00,63.0,60.0,-100.00,NNE,27,3.0,7.0,89,0.00,,,0.00,,2013-10-13 02:22:00,
2013-10-12 22:43:00,63.0,60.0,-100.00,NNE,18,4.0,6.0,88,0.00,,,0.00,,2013-10-13 02:43:00,
2013-10-12 22:52:00,63.0,60.0,-100.00,NNE,25,4.0,5.0,89,0.00,,,0.00,,2013-10-13 02:52:00,
2013-10-12 23:02:00,63.0,60.0,-100.00,NNE,25,4.0,5.0,89,0.00,,,0.00,,2013-10-13 03:02:00,
2013-10-12 23:12:00,63.0,60.0,-100.00,NNE,25,4.0,5.0,89,0.00,,,0.00,,2013-10-13 03:12:00,
2013-10-12 23:23:00,63.0,60.0,-100.00,NNE,23,4.0,6.0,89,0.00,,,0.00,,2013-10-13 03:23:00,
2013-10-12 23:45:00,62.0,59.0,-100.00,NNE,27,2.0,4.0,90,0.00,,,0.00,,2013-10-13 03:45:00,
2013-10-12 23:54:00,62.0,60.0,-100.00,NNE,25,2.0,3.0,92,0.00,,,0.00,,2013-10-13 03:54:00,